createdAt,value
2023-03-19T00:00:18.792Z,5.97
2023-03-19T00:03:05.780Z,6.27
2023-03-19T00:05:54.126Z,6.30
2023-03-19T00:08:42.114Z,5.63
2023-03-19T00:11:29.827Z,5.43
2023-03-19T00:14:18.838Z,5.43
2023-03-19T00:17:06.027Z,7.30
2023-03-19T00:19:53.707Z,8.63
2023-03-19T00:22:40.818Z,4.10
2023-03-19T00:25:30.989Z,3.87
2023-03-19T00:28:18.594Z,4.87
2023-03-19T00:31:11.668Z,4.83
2023-03-19T00:33:59.890Z,5.27
2023-03-19T00:36:47.054Z,5.50
2023-03-19T00:39:34.416Z,4.40
2023-03-19T00:42:21.093Z,3.87
2023-03-19T00:45:09.504Z,4.63
2023-03-19T00:47:57.912Z,2.33
2023-03-19T00:50:44.712Z,2.33
2023-03-19T00:53:31.668Z,3.90
2023-03-19T00:56:19.222Z,5.00
2023-03-19T00:59:06.192Z,4.73
2023-03-19T01:01:53.448Z,3.73
2023-03-19T01:04:42.187Z,5.83
2023-03-19T01:07:29.326Z,4.23
2023-03-19T01:10:18.666Z,4.03
2023-03-19T01:13:05.743Z,5.67
2023-03-19T01:15:54.624Z,7.13
2023-03-19T01:18:41.839Z,6.77
2023-03-19T01:21:31.149Z,4.80
2023-03-19T01:24:18.954Z,6.67
2023-03-19T01:27:06.429Z,2.83
2023-03-19T01:29:53.411Z,6.37
2023-03-19T01:32:40.356Z,3.83
2023-03-19T01:35:27.657Z,5.97
2023-03-19T01:38:16.621Z,5.00
2023-03-19T01:41:03.627Z,5.40
2023-03-19T01:43:50.755Z,8.30
2023-03-19T01:46:39.810Z,8.00
2023-03-19T01:49:29.006Z,4.43
2023-03-19T01:52:17.206Z,4.17
2023-03-19T01:55:07.617Z,5.40
2023-03-19T01:57:54.472Z,8.50
2023-03-19T02:00:42.076Z,3.60
2023-03-19T02:03:30.153Z,6.03
2023-03-19T02:06:18.087Z,3.47
2023-03-19T02:09:10.729Z,11.13
2023-03-19T02:12:00.485Z,3.47
2023-03-19T02:14:47.649Z,3.37
2023-03-19T02:17:35.347Z,2.27
2023-03-19T02:20:27.228Z,5.90
2023-03-19T02:23:24.993Z,4.63
2023-03-19T02:26:15.706Z,3.30
2023-03-19T02:29:04.251Z,4.57
2023-03-19T02:31:51.512Z,2.93
2023-03-19T02:34:41.003Z,7.37
2023-03-19T02:37:33.523Z,9.27
2023-03-19T02:40:25.757Z,3.00
2023-03-19T02:43:14.102Z,3.87
2023-03-19T02:46:02.088Z,9.37
2023-03-19T02:48:49.345Z,2.40
2023-03-19T02:51:37.620Z,8.57
2023-03-19T02:54:24.805Z,4.13
2023-03-19T02:57:12.229Z,2.43
2023-03-19T03:00:29.748Z,3.50
2023-03-19T03:03:17.211Z,4.27
2023-03-19T03:06:04.467Z,5.57
2023-03-19T03:08:52.185Z,5.93
2023-03-19T03:11:41.238Z,7.23
2023-03-19T03:14:28.710Z,5.20
2023-03-19T03:17:17.391Z,3.20
2023-03-19T03:20:04.766Z,4.00
2023-03-19T03:22:52.008Z,4.17
2023-03-19T03:25:38.983Z,3.77
2023-03-19T03:28:25.989Z,3.33
2023-03-19T03:31:13.813Z,2.83
2023-03-19T03:34:04.921Z,3.23
2023-03-19T03:36:52.156Z,4.87
2023-03-19T03:39:39.326Z,2.47
2023-03-19T03:42:26.471Z,2.83
2023-03-19T03:45:14.498Z,4.33
2023-03-19T03:48:01.524Z,4.80
2023-03-19T03:50:50.055Z,2.80
2023-03-19T03:53:38.635Z,2.40
2023-03-19T03:56:26.299Z,2.57
2023-03-19T03:59:13.459Z,4.37
2023-03-19T04:02:01.048Z,3.67
2023-03-19T04:04:47.895Z,3.80
2023-03-19T04:07:36.463Z,2.53
2023-03-19T04:10:26.254Z,3.90
2023-03-19T04:13:14.553Z,2.83
2023-03-19T04:16:01.834Z,3.73
2023-03-19T04:18:50.944Z,2.33
2023-03-19T04:21:37.952Z,4.20
2023-03-19T04:24:27.072Z,2.80
2023-03-19T04:27:14.297Z,2.67
2023-03-19T04:30:01.500Z,3.70
2023-03-19T04:32:48.776Z,4.00
2023-03-19T04:35:35.811Z,2.93
2023-03-19T04:38:23.341Z,3.27
2023-03-19T04:41:12.029Z,4.27
2023-03-19T04:43:58.888Z,6.80
2023-03-19T04:46:46.516Z,5.20
2023-03-19T04:49:33.465Z,2.13
2023-03-19T04:52:20.195Z,5.73
2023-03-19T04:55:10.853Z,2.93
2023-03-19T04:57:59.283Z,5.33
2023-03-19T05:00:48.207Z,2.43
2023-03-19T05:03:35.313Z,2.90
2023-03-19T05:06:22.698Z,2.40
2023-03-19T05:09:10.102Z,3.77
2023-03-19T05:11:56.854Z,2.37
2023-03-19T05:14:45.348Z,4.17
2023-03-19T05:17:32.839Z,2.40
2023-03-19T05:20:20.061Z,3.23
2023-03-19T05:23:10.424Z,8.70
2023-03-19T05:25:59.857Z,2.63
2023-03-19T05:28:48.962Z,8.13
2023-03-19T05:31:40.525Z,7.90
2023-03-19T05:34:27.505Z,6.80
2023-03-19T05:37:14.602Z,4.73
2023-03-19T05:40:01.425Z,2.90
2023-03-19T05:42:48.418Z,3.23
2023-03-19T05:45:35.972Z,4.87
2023-03-19T05:48:24.626Z,4.97
2023-03-19T05:51:12.431Z,4.03
2023-03-19T05:53:59.403Z,5.10
2023-03-19T05:56:46.425Z,3.67
2023-03-19T05:59:37.319Z,4.90
2023-03-19T06:02:24.216Z,7.10
2023-03-19T06:05:15.292Z,7.43
2023-03-19T06:08:02.308Z,6.47
2023-03-19T06:10:49.048Z,5.50
2023-03-19T06:13:35.927Z,2.53
2023-03-19T06:16:25.931Z,1.90
2023-03-19T06:19:13.200Z,4.60
2023-03-19T06:22:02.133Z,2.93
2023-03-19T06:24:49.148Z,6.37
2023-03-19T06:27:36.261Z,4.47
2023-03-19T06:30:23.628Z,5.87
2023-03-19T06:33:10.452Z,3.73
2023-03-19T06:35:57.680Z,7.10
2023-03-19T06:38:49.279Z,4.27
2023-03-19T06:41:36.144Z,3.20
2023-03-19T06:44:23.158Z,5.27
2023-03-19T06:47:10.377Z,4.33
2023-03-19T06:49:57.724Z,2.23
2023-03-19T06:52:45.260Z,5.03
2023-03-19T06:55:33.636Z,4.77
2023-03-19T06:58:21.068Z,4.13
2023-03-19T07:01:09.260Z,2.80
2023-03-19T07:03:57.365Z,4.50
2023-03-19T07:06:44.253Z,3.97
2023-03-19T07:09:31.802Z,5.37
2023-03-19T07:12:20.242Z,3.70
2023-03-19T07:15:08.878Z,7.83
2023-03-19T07:17:55.660Z,4.57
2023-03-19T07:20:42.805Z,4.67
2023-03-19T07:23:30.348Z,4.00
2023-03-19T07:26:17.418Z,4.17
2023-03-19T07:29:06.461Z,5.23
2023-03-19T07:31:53.412Z,2.77
2023-03-19T07:34:40.698Z,4.13
2023-03-19T07:37:27.873Z,3.47
2023-03-19T07:40:15.728Z,4.13
2023-03-19T07:43:06.212Z,4.53
2023-03-19T07:45:54.806Z,4.13
2023-03-19T07:48:41.569Z,4.07
2023-03-19T07:51:28.841Z,8.43
2023-03-19T07:54:15.724Z,7.47
2023-03-19T07:57:05.219Z,7.87
2023-03-19T07:59:52.488Z,10.97
2023-03-19T08:02:41.049Z,8.20
2023-03-19T08:05:28.076Z,3.43
2023-03-19T08:08:15.318Z,5.87
2023-03-19T08:11:02.615Z,4.87
2023-03-19T08:13:55.031Z,5.67
2023-03-19T08:16:42.117Z,3.90
2023-03-19T08:19:30.708Z,3.47
2023-03-19T08:22:17.731Z,6.33
2023-03-19T08:25:04.856Z,5.03
2023-03-19T08:27:52.060Z,4.57
2023-03-19T08:30:39.125Z,3.50
2023-03-19T08:33:26.388Z,3.50
2023-03-19T08:36:15.994Z,8.97
2023-03-19T08:39:03.508Z,4.87
2023-03-19T08:41:50.665Z,4.50
2023-03-19T08:44:39.469Z,7.77
2023-03-19T08:47:26.573Z,6.27
2023-03-19T08:50:14.036Z,3.70
2023-03-19T08:53:02.347Z,8.77
2023-03-19T08:55:53.782Z,5.03
2023-03-19T08:58:42.172Z,5.10
2023-03-19T09:01:29.644Z,2.60
2023-03-19T09:04:16.848Z,4.93
2023-03-19T09:07:03.899Z,3.83
2023-03-19T09:09:52.393Z,4.80
2023-03-19T09:12:39.334Z,6.43
2023-03-19T09:15:26.253Z,3.47
2023-03-19T09:18:13.119Z,6.40
2023-03-19T09:21:00.850Z,4.30
2023-03-19T09:23:47.746Z,6.63
2023-03-19T09:26:36.304Z,6.43
2023-03-19T09:29:23.419Z,8.13
2023-03-19T09:32:11.044Z,6.50
2023-03-19T09:34:57.993Z,6.97
2023-03-19T09:37:45.110Z,3.70
2023-03-19T09:40:37.950Z,5.47
2023-03-19T09:43:52.208Z,7.20
2023-03-19T09:46:46.448Z,5.47
2023-03-19T09:49:39.135Z,3.53
2023-03-19T09:52:41.471Z,5.63
2023-03-19T09:55:41.706Z,6.70
2023-03-19T09:58:32.635Z,4.87
2023-03-19T10:01:28.816Z,2.63
2023-03-19T10:04:40.349Z,4.27
2023-03-19T10:07:49.713Z,3.43
2023-03-19T10:10:48.530Z,6.70
2023-03-19T10:13:53.429Z,4.70
2023-03-19T10:16:44.256Z,4.67
2023-03-19T10:19:40.714Z,5.47
2023-03-19T10:22:33.213Z,6.33
2023-03-19T10:25:23.676Z,5.30
2023-03-19T10:28:17.006Z,4.67
2023-03-19T10:31:15.199Z,5.57
2023-03-19T10:34:18.110Z,5.37
2023-03-19T10:37:08.057Z,3.73
2023-03-19T10:39:58.638Z,7.70
2023-03-19T10:43:02.989Z,3.53
2023-03-19T10:45:50.381Z,3.97
2023-03-19T10:48:45.543Z,5.60
2023-03-19T10:51:34.600Z,4.27
2023-03-19T10:54:23.579Z,2.97
2023-03-19T10:57:24.286Z,3.80
2023-03-19T11:00:29.214Z,7.37
2023-03-19T11:03:33.631Z,4.80
2023-03-19T11:06:26.458Z,3.93
2023-03-19T11:09:39.703Z,3.77
2023-03-19T11:12:38.733Z,7.13
2023-03-19T11:15:44.862Z,4.20
2023-03-19T11:18:46.557Z,4.33
2023-03-19T11:21:39.526Z,3.73
2023-03-19T11:24:30.070Z,3.77
2023-03-19T11:27:18.184Z,5.93
2023-03-19T11:30:15.158Z,10.03
2023-03-19T11:33:50.321Z,7.87
2023-03-19T11:36:50.661Z,4.57
2023-03-19T11:39:52.709Z,5.33
2023-03-19T11:43:05.055Z,4.77
2023-03-19T11:46:21.034Z,4.27
2023-03-19T11:49:39.917Z,6.27
2023-03-19T11:52:34.489Z,5.57
2023-03-19T11:55:27.391Z,10.50
2023-03-19T11:59:05.373Z,8.90
2023-03-19T12:02:27.184Z,3.90
2023-03-19T12:05:24.525Z,6.07
2023-03-19T12:08:26.927Z,3.70
2023-03-19T12:11:25.408Z,3.93
2023-03-19T12:14:27.609Z,6.57
2023-03-19T12:17:30.240Z,5.60
2023-03-19T12:20:43.079Z,3.57
2023-03-19T12:23:45.823Z,3.73
2023-03-19T12:26:46.527Z,3.33
2023-03-19T12:29:44.219Z,3.30
2023-03-19T12:32:42.512Z,2.57
2023-03-19T12:35:35.412Z,4.77
2023-03-19T12:38:28.017Z,4.23
2023-03-19T12:41:21.847Z,4.90
2023-03-19T12:44:13.950Z,3.00
2023-03-19T12:47:04.945Z,2.77
2023-03-19T12:49:58.578Z,6.20
2023-03-19T12:52:49.486Z,4.67
2023-03-19T12:55:42.253Z,4.47
2023-03-19T12:58:40.241Z,4.17
2023-03-19T13:01:34.712Z,3.23
2023-03-19T13:04:25.781Z,3.33
2023-03-19T13:07:21.499Z,4.63
2023-03-19T13:10:14.736Z,5.00
2023-03-19T13:13:06.957Z,7.50
2023-03-19T13:16:04.360Z,4.00
2023-03-19T13:19:00.799Z,10.07
2023-03-19T13:21:51.429Z,4.10
2023-03-19T13:24:39.874Z,7.60
2023-03-19T13:27:31.580Z,5.60
2023-03-19T13:30:20.555Z,7.20
2023-03-19T13:33:14.431Z,2.63
2023-03-19T13:36:06.445Z,6.93
2023-03-19T13:38:53.311Z,5.40
2023-03-19T13:41:52.265Z,6.53
2023-03-19T13:44:43.712Z,3.37
2023-03-19T13:47:44.320Z,2.80
2023-03-19T13:50:50.334Z,5.57
2023-03-19T13:53:42.474Z,3.73
2023-03-19T13:56:30.811Z,4.60
2023-03-19T13:59:27.042Z,5.30
2023-03-19T14:02:49.234Z,4.33
2023-03-19T14:05:38.055Z,5.43
2023-03-19T14:08:28.132Z,8.97
2023-03-19T14:11:24.898Z,3.60
2023-03-19T14:14:17.072Z,3.97
2023-03-19T14:17:03.991Z,4.20
2023-03-19T14:19:52.421Z,2.73
2023-03-19T14:22:42.200Z,5.30
2023-03-19T14:25:49.857Z,3.37
2023-03-19T14:28:46.493Z,7.67
2023-03-19T14:31:44.137Z,6.47
2023-03-19T14:34:36.296Z,4.93
2023-03-19T14:37:25.536Z,5.67
2023-03-19T14:40:17.321Z,3.07
2023-03-19T14:43:11.430Z,4.47
2023-03-19T14:46:04.055Z,4.50
2023-03-19T14:49:46.592Z,5.70
2023-03-19T14:52:36.347Z,8.07
2023-03-19T14:55:23.344Z,4.80
2023-03-19T14:58:13.124Z,3.97
2023-03-19T15:01:01.531Z,6.33
2023-03-19T15:03:56.187Z,3.97
2023-03-19T15:06:45.896Z,2.67
2023-03-19T15:09:35.434Z,3.17
2023-03-19T15:12:36.739Z,3.47
2023-03-19T15:15:33.427Z,7.37
2023-03-19T15:18:23.201Z,3.63
2023-03-19T15:21:10.377Z,4.80
2023-03-19T15:23:58.780Z,4.47
2023-03-19T15:26:47.159Z,2.37
2023-03-19T15:29:37.964Z,2.40
2023-03-19T15:32:54.372Z,2.63
2023-03-19T15:35:47.635Z,3.13
2023-03-19T15:38:41.431Z,3.87
2023-03-19T15:41:31.714Z,2.20
2023-03-19T15:44:23.523Z,2.43
2023-03-19T15:47:14.515Z,1.33
2023-03-19T15:50:07.532Z,1.40
2023-03-19T15:53:00.060Z,1.60
2023-03-19T15:55:50.454Z,2.50
2023-03-19T15:58:42.890Z,0.97
2023-03-19T16:01:32.356Z,1.47
2023-03-19T16:04:25.417Z,1.63
2023-03-19T16:07:24.700Z,1.90
2023-03-19T16:10:36.958Z,1.53
2023-03-19T16:13:30.254Z,3.20
2023-03-19T16:16:21.545Z,1.53
2023-03-19T16:19:36.098Z,2.10
2023-03-19T16:22:25.211Z,1.70
2023-03-19T16:25:19.964Z,1.17
2023-03-19T16:28:19.095Z,10.60
2023-03-19T16:31:06.463Z,9.77
2023-03-19T16:33:54.718Z,5.37
2023-03-19T16:36:47.997Z,1.73
2023-03-19T16:39:36.990Z,1.13
2023-03-19T16:42:42.512Z,1.60
2023-03-19T16:45:32.740Z,3.13
2023-03-19T16:48:19.834Z,1.17
2023-03-19T16:51:10.788Z,1.73
2023-03-19T16:53:57.709Z,1.30
2023-03-19T16:56:44.723Z,0.70
2023-03-19T16:59:32.549Z,1.33
2023-03-19T17:02:21.049Z,5.23
2023-03-19T17:05:14.584Z,4.27
2023-03-19T17:08:01.944Z,4.67
2023-03-19T17:10:51.555Z,3.30
2023-03-19T17:13:43.691Z,3.33
2023-03-19T17:16:31.215Z,2.80
2023-03-19T17:19:23.418Z,1.60
2023-03-19T17:22:14.367Z,2.60
2023-03-19T17:25:01.479Z,2.80
2023-03-19T17:27:51.361Z,4.97
2023-03-19T17:30:39.502Z,3.20
2023-03-19T17:33:28.746Z,1.70
2023-03-19T17:36:17.479Z,3.97
2023-03-19T17:39:05.170Z,2.83
2023-03-19T17:41:53.864Z,3.47
2023-03-19T17:44:40.603Z,3.47
2023-03-19T17:47:27.468Z,2.40
2023-03-19T17:50:20.538Z,3.13
2023-03-19T17:53:12.250Z,5.10
2023-03-19T17:55:59.419Z,2.37
2023-03-19T17:58:49.849Z,4.80
2023-03-19T18:01:38.373Z,1.43
2023-03-19T18:04:25.537Z,2.70
2023-03-19T18:07:12.327Z,3.53
2023-03-19T18:10:00.407Z,1.83
2023-03-19T18:12:47.338Z,4.33
2023-03-19T18:15:34.624Z,4.37
2023-03-19T18:18:23.669Z,3.83
2023-03-19T18:21:14.217Z,4.40
2023-03-19T18:24:01.486Z,3.33
2023-03-19T18:26:49.759Z,2.73
2023-03-19T18:29:36.811Z,3.40
2023-03-19T18:32:28.906Z,2.67
2023-03-19T18:35:18.013Z,3.17
2023-03-19T18:38:05.431Z,2.40
2023-03-19T18:40:53.691Z,4.67
2023-03-19T18:43:42.789Z,5.77
2023-03-19T18:46:31.520Z,4.10
2023-03-19T18:49:22.665Z,1.63
2023-03-19T18:52:13.385Z,3.13
2023-03-19T18:55:00.511Z,2.97
2023-03-19T18:57:53.713Z,2.10
2023-03-19T19:00:42.898Z,3.57
2023-03-19T19:03:31.776Z,3.87
2023-03-19T19:06:28.253Z,2.80
2023-03-19T19:09:20.486Z,3.33
2023-03-19T19:12:09.344Z,3.20
2023-03-19T19:14:58.778Z,4.77
2023-03-19T19:17:48.019Z,5.00
2023-03-19T19:20:34.895Z,6.67
2023-03-19T19:23:26.755Z,2.63
2023-03-19T19:26:21.665Z,2.43
2023-03-19T19:29:08.955Z,0.77
2023-03-19T19:31:56.174Z,0.63
2023-03-19T19:34:44.770Z,0.50
2023-03-19T19:37:31.845Z,1.13
2023-03-19T19:40:21.936Z,0.40
2023-03-19T19:43:18.219Z,1.03
2023-03-19T19:46:06.050Z,0.40
2023-03-19T19:48:52.993Z,0.30
2023-03-19T19:51:41.389Z,1.03
2023-03-19T19:54:28.411Z,1.03
2023-03-19T19:57:20.732Z,0.77
2023-03-19T20:00:18.681Z,0.20
2023-03-19T20:03:05.954Z,0.47
2023-03-19T20:05:53.575Z,0.30
2023-03-19T20:08:42.986Z,0.33
2023-03-19T20:11:32.585Z,0.90
2023-03-19T20:14:19.552Z,0.50
2023-03-19T20:17:06.646Z,0.60
2023-03-19T20:19:53.792Z,1.30
2023-03-19T20:22:40.918Z,0.60
2023-03-19T20:25:32.607Z,0.50
2023-03-19T20:28:22.340Z,1.10
2023-03-19T20:31:17.191Z,0.43
2023-03-19T20:34:04.405Z,0.90
2023-03-19T20:36:52.784Z,0.50
2023-03-19T20:39:39.922Z,0.30
2023-03-19T20:42:31.462Z,0.43
2023-03-19T20:45:21.984Z,2.63
2023-03-19T20:48:16.598Z,0.60
2023-03-19T20:51:04.038Z,1.77
2023-03-19T20:53:52.850Z,1.87
2023-03-19T20:56:41.926Z,1.80
2023-03-19T20:59:30.903Z,0.97
2023-03-19T21:02:19.589Z,0.67
2023-03-19T21:05:07.874Z,1.43
2023-03-19T21:07:55.565Z,3.47
2023-03-19T21:10:44.602Z,1.30
2023-03-19T21:13:31.956Z,0.97
2023-03-19T21:16:22.898Z,1.27
2023-03-19T21:19:10.456Z,6.00
2023-03-19T21:21:57.270Z,9.90
2023-03-19T21:24:44.633Z,5.70
2023-03-19T21:27:32.821Z,8.50
2023-03-19T21:30:21.530Z,5.23
2023-03-19T21:33:20.172Z,8.77
2023-03-19T21:36:11.770Z,9.80
2023-03-19T21:38:58.910Z,12.23
2023-03-19T21:41:47.639Z,8.77
2023-03-19T21:44:35.031Z,3.30
2023-03-19T21:47:22.961Z,2.17
2023-03-19T21:50:17.429Z,12.73
2023-03-19T21:53:04.479Z,4.13
2023-03-19T21:55:52.655Z,4.73
2023-03-19T21:58:42.555Z,5.93
2023-03-19T22:01:29.470Z,11.20
2023-03-19T22:04:16.447Z,9.57
2023-03-19T22:07:05.982Z,6.60
2023-03-19T22:09:53.122Z,1.80
2023-03-19T22:12:41.599Z,3.57
2023-03-19T22:15:34.921Z,22.73
2023-03-19T22:18:22.354Z,13.07
2023-03-19T22:21:13.337Z,10.27
2023-03-19T22:24:01.602Z,17.37
2023-03-19T22:26:52.335Z,77.00
2023-03-19T22:29:40.820Z,15.97
2023-03-19T22:32:27.811Z,6.60
2023-03-19T22:35:17.671Z,4.83
2023-03-19T22:38:04.644Z,6.60
2023-03-19T22:40:55.356Z,4.70
2023-03-19T22:43:42.072Z,7.57
2023-03-19T22:46:29.768Z,11.43
2023-03-19T22:49:18.653Z,7.33
2023-03-19T22:52:06.559Z,1.70
2023-03-19T22:54:54.135Z,2.57
2023-03-19T22:57:42.755Z,4.57
2023-03-19T23:00:29.784Z,7.47
2023-03-19T23:03:21.421Z,13.10
2023-03-19T23:06:28.860Z,12.07
2023-03-19T23:09:19.094Z,5.97
2023-03-19T23:14:56.695Z,87.47
2023-03-19T23:17:43.885Z,78.60
2023-03-19T23:20:33.925Z,35.33
2023-03-19T23:23:21.152Z,43.10
2023-03-19T23:26:12.159Z,94.77
2023-03-19T23:29:03.590Z,50.80
2023-03-19T23:31:52.420Z,20.87
2023-03-19T23:34:53.947Z,10.47
2023-03-19T23:37:42.836Z,8.73
2023-03-19T23:40:33.191Z,4.97
2023-03-19T23:43:23.043Z,6.00
2023-03-19T23:46:11.100Z,12.33
2023-03-19T23:48:59.355Z,3.50
2023-03-19T23:51:46.745Z,3.90
2023-03-19T23:54:36.694Z,4.63
2023-03-19T23:57:26.486Z,11.57
